createdAt,value
2022-11-21T04:53:03.673Z,22.43
2022-11-21T04:55:33.408Z,24.20
2022-11-21T04:58:02.430Z,24.50
2022-11-21T05:00:30.900Z,26.00
2022-11-21T05:03:04.456Z,23.97
2022-11-21T05:05:33.390Z,27.27
2022-11-21T05:08:03.804Z,25.47
2022-11-21T05:10:52.173Z,24.50
2022-11-21T05:13:22.320Z,25.47
2022-11-21T05:15:52.031Z,24.13
2022-11-21T05:18:20.910Z,24.63
2022-11-21T05:20:49.381Z,29.83
2022-11-21T05:23:19.222Z,32.83
2022-11-21T05:25:48.128Z,25.50
2022-11-21T05:28:16.852Z,25.77
2022-11-21T05:30:45.361Z,26.70
2022-11-21T05:33:13.935Z,26.63
2022-11-21T05:35:43.648Z,24.57
2022-11-21T05:38:12.919Z,29.33
2022-11-21T05:40:43.042Z,27.23
2022-11-21T05:43:30.790Z,24.93
2022-11-21T05:45:59.260Z,26.67
2022-11-21T05:48:27.864Z,25.80
2022-11-21T05:50:56.410Z,24.70
2022-11-21T05:53:24.822Z,27.77
2022-11-21T05:55:55.007Z,26.53
2022-11-21T05:58:24.492Z,31.10
2022-11-21T06:00:59.942Z,28.90
2022-11-21T06:03:31.092Z,27.50
2022-11-21T06:06:05.297Z,26.97
2022-11-21T06:08:35.679Z,30.77
2022-11-21T06:11:07.032Z,29.73
2022-11-21T06:13:36.557Z,29.73
2022-11-21T06:16:07.126Z,29.70
2022-11-21T06:18:36.953Z,27.03
2022-11-21T06:21:07.609Z,26.43
2022-11-21T06:23:36.684Z,28.30
2022-11-21T06:26:13.109Z,25.77
2022-11-21T06:28:42.698Z,23.57
2022-11-21T06:31:13.266Z,26.60
2022-11-21T06:33:43.077Z,28.20
2022-11-21T06:36:13.130Z,28.67
2022-11-21T06:38:41.593Z,31.73
2022-11-21T06:41:14.440Z,35.37
2022-11-21T06:43:43.323Z,26.17
2022-11-21T06:46:12.761Z,25.67
2022-11-21T06:48:43.213Z,29.30
2022-11-21T06:51:17.096Z,31.03
2022-11-21T06:53:48.286Z,30.57
2022-11-21T06:56:18.740Z,29.80
2022-11-21T06:58:47.180Z,27.30
2022-11-21T07:01:15.770Z,28.17
2022-11-21T07:03:45.135Z,31.33
2022-11-21T07:06:13.561Z,25.57
2022-11-21T07:08:42.071Z,29.17
2022-11-21T07:11:28.024Z,27.27
2022-11-21T07:13:57.921Z,29.27
2022-11-21T07:16:30.798Z,30.73
2022-11-21T07:19:00.428Z,31.67
2022-11-21T07:21:29.079Z,34.90
2022-11-21T07:23:57.804Z,31.13
2022-11-21T07:26:26.426Z,29.33
2022-11-21T07:28:55.149Z,28.17
2022-11-21T07:31:25.131Z,32.07
2022-11-21T07:33:53.926Z,28.13
2022-11-21T07:36:24.252Z,31.80
2022-11-21T07:38:54.061Z,34.23
2022-11-21T07:41:22.535Z,31.60
2022-11-21T07:43:51.088Z,30.07
2022-11-21T07:46:19.792Z,33.63
2022-11-21T07:48:49.988Z,32.67
2022-11-21T07:51:18.489Z,29.67
2022-11-21T07:53:47.409Z,35.33
2022-11-21T07:56:16.040Z,37.50
2022-11-21T07:58:46.343Z,34.73
2022-11-21T08:01:14.837Z,35.60
2022-11-21T08:03:43.739Z,35.13
2022-11-21T08:06:14.828Z,36.47
2022-11-21T08:08:44.333Z,39.13
2022-11-21T08:11:13.014Z,36.10
2022-11-21T08:13:41.531Z,39.63
2022-11-21T08:16:09.968Z,39.73
2022-11-21T08:18:38.405Z,38.43
2022-11-21T08:21:07.034Z,37.27
2022-11-21T08:23:37.058Z,50.30
2022-11-21T08:26:05.597Z,52.33
2022-11-21T08:28:34.090Z,42.50
2022-11-21T08:31:05.201Z,36.70
2022-11-21T08:33:34.801Z,29.47
2022-11-21T08:36:05.662Z,35.00
2022-11-21T08:38:34.425Z,33.30
2022-11-21T08:41:21.937Z,31.27
2022-11-21T08:43:50.593Z,28.80
2022-11-21T08:46:20.123Z,27.47
2022-11-21T08:48:48.558Z,32.33
2022-11-21T08:51:17.046Z,33.23
2022-11-21T08:53:47.186Z,28.67
2022-11-21T08:56:17.277Z,30.07
2022-11-21T08:58:45.822Z,30.07
2022-11-21T09:01:14.427Z,42.00
2022-11-21T09:03:43.334Z,30.43
2022-11-21T09:06:12.526Z,28.40
2022-11-21T09:08:40.969Z,28.97
2022-11-21T09:11:11.049Z,28.37
2022-11-21T09:13:41.311Z,25.23
2022-11-21T09:16:30.572Z,29.13
2022-11-21T09:18:58.982Z,29.70
2022-11-21T09:21:27.602Z,27.07
2022-11-21T09:23:56.169Z,32.50
2022-11-21T09:26:24.669Z,24.87
2022-11-21T09:28:54.570Z,25.13
2022-11-21T09:31:23.158Z,20.70
2022-11-21T09:33:54.986Z,22.20
2022-11-21T09:36:23.744Z,19.53
2022-11-21T09:38:54.178Z,24.20
2022-11-21T09:41:46.732Z,21.43
2022-11-21T09:44:23.790Z,20.83
2022-11-21T09:46:59.829Z,21.27
2022-11-21T09:49:31.180Z,17.13
2022-11-21T09:52:01.581Z,18.83
2022-11-21T09:54:34.645Z,19.80
2022-11-21T09:57:03.143Z,16.40
2022-11-21T09:59:36.377Z,19.60
2022-11-21T10:02:12.422Z,15.90
2022-11-21T10:04:41.021Z,21.17
2022-11-21T10:07:16.062Z,16.30
2022-11-21T10:09:56.149Z,17.97
2022-11-21T10:12:40.575Z,17.77
2022-11-21T10:15:24.986Z,18.00
2022-11-21T10:18:26.081Z,17.13
2022-11-21T10:21:04.266Z,19.20
2022-11-21T10:23:57.889Z,17.27
2022-11-21T10:26:37.439Z,19.43
2022-11-21T10:29:12.737Z,18.57
2022-11-21T10:31:44.547Z,17.53
2022-11-21T10:34:16.540Z,14.17
2022-11-21T10:36:50.055Z,15.00
2022-11-21T10:39:22.199Z,15.10
2022-11-21T10:41:54.599Z,17.30
2022-11-21T10:44:45.638Z,14.20
2022-11-21T10:47:27.796Z,14.50
2022-11-21T10:50:14.423Z,14.20
2022-11-21T10:52:47.999Z,12.03
2022-11-21T10:55:19.190Z,13.57
2022-11-21T10:57:49.241Z,13.53
2022-11-21T11:00:23.639Z,13.27
2022-11-21T11:03:08.028Z,12.87
2022-11-21T11:05:37.646Z,15.77
2022-11-21T11:08:10.827Z,12.90
2022-11-21T11:10:41.199Z,13.43
2022-11-21T11:13:51.723Z,13.83
2022-11-21T11:16:22.649Z,11.87
2022-11-21T11:18:59.916Z,11.40
2022-11-21T11:21:30.590Z,13.60
2022-11-21T11:24:21.628Z,13.13
2022-11-21T11:26:57.643Z,13.00
2022-11-21T11:29:27.956Z,10.40
2022-11-21T11:31:59.164Z,12.37
2022-11-21T11:34:39.537Z,13.97
2022-11-21T11:37:21.164Z,14.20
2022-11-21T11:40:04.460Z,14.50
2022-11-21T11:43:10.021Z,15.47
2022-11-21T11:46:11.907Z,15.73
2022-11-21T11:48:56.505Z,16.27
2022-11-21T11:51:36.512Z,16.03
2022-11-21T11:54:15.497Z,15.97
2022-11-21T11:56:44.704Z,15.87
2022-11-21T11:59:21.903Z,16.90
2022-11-21T12:01:55.125Z,15.00
2022-11-21T12:04:26.438Z,16.90
2022-11-21T12:08:20.020Z,16.30
2022-11-21T12:10:00.660Z,14.23
2022-11-21T12:12:35.388Z,17.23
2022-11-21T12:15:30.211Z,14.47
2022-11-21T12:18:13.500Z,14.57
2022-11-21T12:20:52.688Z,15.70
2022-11-21T12:23:25.209Z,14.10
2022-11-21T12:26:06.400Z,20.13
2022-11-21T12:28:47.002Z,16.17
2022-11-21T12:31:19.380Z,18.20
2022-11-21T12:33:56.210Z,19.87
2022-11-21T12:36:36.941Z,16.37
2022-11-21T12:39:32.930Z,20.93
2022-11-21T12:42:28.009Z,16.43
2022-11-21T12:45:08.811Z,17.30
2022-11-21T12:48:23.342Z,18.17
2022-11-21T12:51:17.066Z,21.03
2022-11-21T12:54:12.561Z,20.00
2022-11-21T12:56:49.667Z,17.13
2022-11-21T12:59:19.209Z,21.80
2022-11-21T13:01:59.227Z,24.27
2022-11-21T13:04:34.734Z,18.93
2022-11-21T13:07:05.346Z,20.17
2022-11-21T13:09:41.600Z,18.17
2022-11-21T13:12:17.433Z,19.80
2022-11-21T13:14:52.309Z,21.27
2022-11-21T13:17:30.822Z,17.97
2022-11-21T13:20:03.631Z,20.37
2022-11-21T13:23:07.838Z,18.53
2022-11-21T13:25:53.740Z,19.03
2022-11-21T13:28:32.762Z,18.77
2022-11-21T13:31:03.302Z,19.07
2022-11-21T13:33:52.663Z,18.53
2022-11-21T13:36:43.684Z,19.97
2022-11-21T13:39:37.469Z,19.63
2022-11-21T13:42:25.480Z,18.93
2022-11-21T13:44:55.979Z,19.53
2022-11-21T13:48:00.378Z,15.20
2022-11-21T13:51:02.266Z,21.33
2022-11-21T13:53:58.795Z,19.90
2022-11-21T13:56:36.711Z,20.47
2022-11-21T13:59:31.522Z,19.23
2022-11-21T14:02:36.671Z,18.97
2022-11-21T14:05:26.271Z,19.03
2022-11-21T14:07:55.091Z,17.27
2022-11-21T14:10:34.372Z,18.40
2022-11-21T14:13:04.705Z,17.60
2022-11-21T14:15:41.060Z,16.73
2022-11-21T14:18:22.740Z,18.57
2022-11-21T14:20:56.960Z,14.83
2022-11-21T14:23:28.223Z,18.80
2022-11-21T14:26:00.480Z,19.87
2022-11-21T14:28:30.961Z,18.97
2022-11-21T14:31:02.171Z,17.50
2022-11-21T14:33:34.169Z,17.93
2022-11-21T14:36:09.516Z,17.27
2022-11-21T14:38:44.488Z,16.33
2022-11-21T14:41:32.128Z,17.80
2022-11-21T14:44:15.920Z,19.17
2022-11-21T14:46:45.342Z,17.93
2022-11-21T14:49:30.388Z,17.17
2022-11-21T14:52:18.363Z,17.50
2022-11-21T14:55:28.054Z,19.63
2022-11-21T14:57:43.832Z,22.20
2022-11-21T15:00:51.353Z,21.10
2022-11-21T15:03:20.334Z,21.13
2022-11-21T15:09:29.008Z,19.23
2022-11-21T15:11:44.919Z,17.60
2022-11-21T15:14:22.810Z,23.53
2022-11-21T15:16:56.520Z,23.73
2022-11-21T15:19:28.020Z,19.90
2022-11-21T15:22:01.208Z,27.33
2022-11-21T15:24:40.588Z,27.27
2022-11-21T15:27:32.171Z,26.63
2022-11-21T15:30:23.223Z,24.73
2022-11-21T15:33:03.009Z,22.10
2022-11-21T15:35:42.778Z,24.23
2022-11-21T15:38:29.105Z,20.87
2022-11-21T15:40:59.819Z,21.43
2022-11-21T15:43:40.853Z,23.03
2022-11-21T15:46:18.070Z,24.80
2022-11-21T15:48:48.745Z,19.00
2022-11-21T15:51:31.831Z,18.63
2022-11-21T15:54:11.558Z,17.53
2022-11-21T15:56:40.628Z,18.77
2022-11-21T15:59:09.288Z,22.53
2022-11-21T16:01:38.890Z,25.97
2022-11-21T16:04:09.752Z,25.27
2022-11-21T16:06:39.348Z,23.87
2022-11-21T16:09:09.836Z,21.67
2022-11-21T16:11:40.591Z,23.77
2022-11-21T16:14:10.247Z,22.87
2022-11-21T16:16:43.225Z,20.40
2022-11-21T16:19:13.965Z,22.33
2022-11-21T16:21:43.373Z,23.33
2022-11-21T16:24:13.291Z,24.60
2022-11-21T16:26:42.033Z,22.40
2022-11-21T16:29:12.579Z,24.03
2022-11-21T16:31:41.291Z,24.17
2022-11-21T16:34:09.931Z,20.93
2022-11-21T16:36:38.892Z,23.27
2022-11-21T16:39:12.379Z,24.03
2022-11-21T16:41:46.802Z,20.87
2022-11-21T16:44:17.031Z,22.40
2022-11-21T16:46:49.498Z,26.83
2022-11-21T16:49:18.960Z,24.50
2022-11-21T16:51:47.568Z,26.13
2022-11-21T16:54:17.260Z,24.40
2022-11-21T16:56:47.280Z,25.80
2022-11-21T16:59:16.169Z,28.27
2022-11-21T17:01:44.983Z,41.10
2022-11-21T17:04:17.228Z,31.40
2022-11-21T17:06:49.105Z,34.33
2022-11-21T17:09:18.127Z,28.60
2022-11-21T17:11:49.736Z,28.93
2022-11-21T17:14:18.607Z,50.67
2022-11-21T17:16:49.247Z,35.17
2022-11-21T17:19:17.952Z,30.07
2022-11-21T17:21:46.699Z,33.17
2022-11-21T17:24:15.524Z,40.97
2022-11-21T17:26:44.329Z,34.53
2022-11-21T17:29:14.265Z,33.47
2022-11-21T17:31:43.051Z,33.77
2022-11-21T17:34:11.727Z,31.33
2022-11-21T17:36:41.178Z,29.23
2022-11-21T17:39:09.813Z,29.97
2022-11-21T17:41:39.717Z,32.10
2022-11-21T17:44:08.390Z,35.20
2022-11-21T17:46:38.331Z,35.83
2022-11-21T17:49:06.974Z,33.50
2022-11-21T17:51:37.538Z,29.83
2022-11-21T17:54:08.269Z,34.90
2022-11-21T17:56:45.082Z,36.83
2022-11-21T17:59:15.369Z,34.63
2022-11-21T18:01:46.325Z,35.50
2022-11-21T18:04:17.572Z,33.60
2022-11-21T18:06:47.173Z,31.23
2022-11-21T18:09:16.748Z,36.53
2022-11-21T18:11:46.546Z,32.87
2022-11-21T18:14:15.689Z,37.07
2022-11-21T18:16:52.535Z,32.60
2022-11-21T18:19:22.265Z,31.77
2022-11-21T18:21:51.879Z,34.93
2022-11-21T18:24:20.334Z,30.50
2022-11-21T18:26:48.893Z,33.57
2022-11-21T18:32:08.481Z,32.20
2022-11-21T18:34:37.193Z,36.47
2022-11-21T18:37:05.976Z,36.60
2022-11-21T18:39:34.624Z,31.90
2022-11-21T18:42:03.137Z,35.53
2022-11-21T18:44:31.916Z,30.37
2022-11-21T18:47:00.483Z,32.50
2022-11-21T18:49:30.580Z,33.83
2022-11-21T18:51:59.731Z,33.67
2022-11-21T18:54:28.161Z,33.57
2022-11-21T18:56:57.510Z,31.20
2022-11-21T18:59:27.059Z,31.63
2022-11-21T19:01:56.125Z,31.83
2022-11-21T19:04:25.766Z,33.00
2022-11-21T19:06:55.692Z,30.97
2022-11-21T19:09:28.062Z,29.53
2022-11-21T19:12:06.117Z,32.90
2022-11-21T19:14:34.672Z,35.60
2022-11-21T19:17:03.570Z,30.67
2022-11-21T19:19:34.616Z,35.07
2022-11-21T19:22:06.434Z,33.73
2022-11-21T19:24:35.103Z,34.80
2022-11-21T19:27:03.919Z,32.90
2022-11-21T19:29:34.275Z,31.30
2022-11-21T19:32:03.200Z,29.50
2022-11-21T19:34:32.070Z,26.90
2022-11-21T19:37:00.800Z,28.47
2022-11-21T19:39:31.586Z,27.07
2022-11-21T19:42:06.836Z,29.03
2022-11-21T19:44:35.419Z,29.87
2022-11-21T19:47:04.231Z,31.87
2022-11-21T19:49:32.794Z,29.10
2022-11-21T19:52:01.318Z,25.70
2022-11-21T19:54:32.468Z,24.80
2022-11-21T19:57:12.400Z,27.33
2022-11-21T19:59:46.446Z,26.90
2022-11-21T20:02:21.640Z,26.10
2022-11-21T20:04:50.690Z,24.33
2022-11-21T20:07:19.145Z,24.30
2022-11-21T20:09:49.275Z,26.60
2022-11-21T20:12:17.662Z,24.53
2022-11-21T20:14:48.462Z,24.80
2022-11-21T20:17:17.008Z,22.13
2022-11-21T20:19:50.592Z,25.47
2022-11-21T20:22:19.538Z,23.90
2022-11-21T20:24:52.015Z,20.80
2022-11-21T20:27:21.060Z,19.73
2022-11-21T20:29:49.532Z,20.13
2022-11-21T20:32:18.098Z,22.03
2022-11-21T20:34:46.529Z,20.30
2022-11-21T20:37:15.288Z,20.27
2022-11-21T20:39:44.408Z,18.80
2022-11-21T20:42:15.330Z,19.63
2022-11-21T20:45:41.715Z,20.63
2022-11-21T20:47:32.059Z,19.47
2022-11-21T20:50:01.702Z,18.77
2022-11-21T20:55:18.835Z,17.70
2022-11-21T20:57:49.780Z,29.10
2022-11-21T21:00:19.822Z,19.83
2022-11-21T21:02:58.554Z,16.30
2022-11-21T21:05:33.012Z,16.90
2022-11-21T21:08:01.350Z,17.83
2022-11-21T21:10:46.059Z,15.30
2022-11-21T21:13:20.480Z,18.53
2022-11-21T21:15:49.540Z,15.57
2022-11-21T21:18:18.080Z,16.17
2022-11-21T21:21:14.918Z,19.13
2022-11-21T21:23:38.093Z,18.57
2022-11-21T21:26:11.731Z,14.97
2022-11-21T21:28:41.721Z,17.20
2022-11-21T21:31:12.181Z,18.07
2022-11-21T21:33:41.524Z,17.17
2022-11-21T21:36:12.004Z,17.00
2022-11-21T21:38:41.730Z,18.07
2022-11-21T21:41:14.097Z,16.97
2022-11-21T21:43:44.095Z,16.27
2022-11-21T21:46:14.524Z,16.70
2022-11-21T21:48:44.396Z,17.60
2022-11-21T21:51:16.510Z,18.27
2022-11-21T21:53:46.265Z,18.50
2022-11-21T21:56:17.419Z,18.37
2022-11-21T21:58:48.816Z,17.57
2022-11-21T22:01:19.149Z,17.30
2022-11-21T22:03:49.003Z,16.00
2022-11-21T22:06:19.842Z,16.10
2022-11-21T22:08:49.658Z,17.27
2022-11-21T22:11:21.084Z,17.77
2022-11-21T22:13:54.894Z,16.60
2022-11-21T22:16:23.872Z,16.43
2022-11-21T22:18:52.939Z,14.13
2022-11-21T22:21:23.911Z,18.30
2022-11-21T22:26:41.238Z,18.70
2022-11-21T22:29:11.221Z,17.13
2022-11-21T22:31:39.708Z,18.67
2022-11-21T22:34:08.274Z,21.73
2022-11-21T22:36:36.664Z,20.20
2022-11-21T22:39:05.246Z,19.80
2022-11-21T22:41:33.600Z,19.70
2022-11-21T22:44:02.042Z,19.77
2022-11-21T22:46:32.647Z,19.60
2022-11-21T22:49:01.144Z,61.83
2022-11-21T22:51:31.066Z,24.00
2022-11-21T22:53:59.610Z,21.50
2022-11-21T22:56:28.318Z,22.50
2022-11-21T22:58:57.369Z,18.37
2022-11-21T23:01:27.285Z,21.10
2022-11-21T23:03:57.191Z,23.47
2022-11-21T23:06:28.131Z,21.27
2022-11-21T23:08:58.093Z,20.17
2022-11-21T23:11:28.995Z,22.07
2022-11-21T23:13:58.299Z,23.60
2022-11-21T23:16:27.404Z,23.57
2022-11-21T23:18:57.796Z,22.27
2022-11-21T23:21:26.223Z,26.53
2022-11-21T23:23:54.653Z,23.27
2022-11-21T23:26:24.065Z,26.93
2022-11-21T23:28:52.465Z,26.20
2022-11-21T23:31:20.880Z,23.47
2022-11-21T23:33:49.335Z,25.53
2022-11-21T23:36:19.227Z,23.67
2022-11-21T23:38:47.679Z,26.63
2022-11-21T23:41:16.487Z,28.20
2022-11-21T23:43:44.842Z,25.53
2022-11-21T23:46:13.265Z,32.60
2022-11-21T23:48:41.689Z,29.30
